createdAt,value
2022-09-25T00:01:13.024Z,15.34
2022-09-25T00:03:43.942Z,15.42
2022-09-25T00:06:18.768Z,15.51
2022-09-25T00:08:50.565Z,15.59
2022-09-25T00:11:27.894Z,15.68
2022-09-25T00:14:00.217Z,15.77
2022-09-25T00:16:33.129Z,15.86
2022-09-25T00:19:22.314Z,15.95
2022-09-25T00:21:54.103Z,16.02
2022-09-25T00:24:24.883Z,16.10
2022-09-25T00:26:55.311Z,16.18
2022-09-25T00:29:28.203Z,16.26
2022-09-25T00:31:58.974Z,16.32
2022-09-25T00:34:29.740Z,16.40
2022-09-25T00:37:00.301Z,16.46
2022-09-25T00:39:31.408Z,16.56
2022-09-25T00:42:02.217Z,16.64
2022-09-25T00:44:59.186Z,16.72
2022-09-25T00:47:49.467Z,16.79
2022-09-25T00:50:33.065Z,16.89
2022-09-25T00:53:16.461Z,16.97
2022-09-25T00:55:48.293Z,17.06
2022-09-25T00:58:24.413Z,17.14
2022-09-25T01:00:55.691Z,17.22
2022-09-25T01:03:27.225Z,17.30
2022-09-25T01:06:01.262Z,17.39
2022-09-25T01:08:34.318Z,17.48
2022-09-25T01:11:04.456Z,17.57
2022-09-25T01:13:35.339Z,17.66
2022-09-25T01:16:18.597Z,17.73
2022-09-25T01:19:17.140Z,17.84
2022-09-25T01:21:51.735Z,17.91
2022-09-25T01:24:43.816Z,18.00
2022-09-25T01:27:30.008Z,18.09
2022-09-25T01:30:08.482Z,18.19
2022-09-25T01:32:52.942Z,18.27
2022-09-25T01:35:45.868Z,18.34
2022-09-25T01:38:39.617Z,18.44
2022-09-25T01:41:24.793Z,18.54
2022-09-25T01:44:13.607Z,18.62
2022-09-25T01:46:52.247Z,18.71
2022-09-25T01:49:36.186Z,18.78
2022-09-25T01:52:21.546Z,18.87
2022-09-25T01:55:02.035Z,18.96
2022-09-25T01:57:41.933Z,19.05
2022-09-25T02:00:16.271Z,19.13
2022-09-25T02:02:56.516Z,19.22
2022-09-25T02:05:37.663Z,19.29
2022-09-25T02:08:17.118Z,19.37
2022-09-25T02:10:58.565Z,19.44
2022-09-25T02:14:03.161Z,19.53
2022-09-25T02:16:48.636Z,19.60
2022-09-25T02:19:38.199Z,19.65
2022-09-25T02:22:37.620Z,19.77
2022-09-25T02:25:22.479Z,19.85
2022-09-25T02:27:52.559Z,19.92
2022-09-25T02:30:22.853Z,19.98
2022-09-25T02:32:53.011Z,20.03
2022-09-25T02:35:23.729Z,20.09
2022-09-25T02:37:57.512Z,20.14
2022-09-25T02:41:06.870Z,20.21
2022-09-25T02:43:53.111Z,20.24
2022-09-25T02:46:45.089Z,20.28
2022-09-25T02:49:52.509Z,20.33
2022-09-25T02:52:52.519Z,20.38
2022-09-25T02:55:55.202Z,20.45
2022-09-25T02:58:45.183Z,20.51
2022-09-25T03:01:18.658Z,20.56
2022-09-25T03:03:52.092Z,20.61
2022-09-25T03:06:24.666Z,20.68
2022-09-25T03:09:00.727Z,20.72
2022-09-25T03:11:31.143Z,20.76
2022-09-25T03:14:04.048Z,20.83
2022-09-25T03:16:44.981Z,20.90
2022-09-25T03:19:20.913Z,20.94
2022-09-25T03:21:52.431Z,20.99
2022-09-25T03:24:23.465Z,21.01
2022-09-25T03:26:55.284Z,21.06
2022-09-25T03:29:26.553Z,21.09
2022-09-25T03:31:56.797Z,21.12
2022-09-25T03:34:27.157Z,21.15
2022-09-25T03:36:57.362Z,21.17
2022-09-25T03:39:26.923Z,21.23
2022-09-25T03:41:57.237Z,21.26
2022-09-25T03:44:31.223Z,21.30
2022-09-25T03:47:02.050Z,21.33
2022-09-25T03:49:32.332Z,21.36
2022-09-25T03:52:02.889Z,21.41
2022-09-25T03:54:34.075Z,21.44
2022-09-25T03:57:04.681Z,21.47
2022-09-25T03:59:35.353Z,21.48
2022-09-25T04:02:06.020Z,21.52
2022-09-25T04:04:36.442Z,21.57
2022-09-25T04:07:09.791Z,21.62
2022-09-25T04:09:41.175Z,21.66
2022-09-25T04:12:12.693Z,21.69
2022-09-25T04:14:43.577Z,21.74
2022-09-25T04:17:14.232Z,21.77
2022-09-25T04:19:45.060Z,21.80
2022-09-25T04:22:15.817Z,21.85
2022-09-25T04:24:52.061Z,21.89
2022-09-25T04:27:24.341Z,21.91
2022-09-25T04:29:55.308Z,21.94
2022-09-25T04:32:43.712Z,21.98
2022-09-25T04:35:14.593Z,22.02
2022-09-25T04:37:44.628Z,22.05
2022-09-25T04:40:14.863Z,22.09
2022-09-25T04:42:46.068Z,22.12
2022-09-25T04:45:17.424Z,22.17
2022-09-25T04:47:47.593Z,22.19
2022-09-25T04:50:17.786Z,22.24
2022-09-25T04:52:47.976Z,22.25
2022-09-25T04:55:25.678Z,22.29
2022-09-25T04:57:59.091Z,22.33
2022-09-25T05:00:32.899Z,22.38
2022-09-25T05:03:05.970Z,22.41
2022-09-25T05:05:37.317Z,22.44
2022-09-25T05:08:08.091Z,22.46
2022-09-25T05:10:41.063Z,22.48
2022-09-25T05:13:13.368Z,22.54
2022-09-25T05:15:46.388Z,22.55
2022-09-25T05:18:23.512Z,22.58
2022-09-25T05:20:55.670Z,22.60
2022-09-25T05:23:26.454Z,22.64
2022-09-25T05:25:59.366Z,22.69
2022-09-25T05:28:30.465Z,22.72
2022-09-25T05:31:07.927Z,22.78
2022-09-25T05:33:38.742Z,22.80
2022-09-25T05:36:09.985Z,22.84
2022-09-25T05:38:42.378Z,22.88
2022-09-25T05:41:13.820Z,22.92
2022-09-25T05:43:48.953Z,22.95
2022-09-25T05:46:19.843Z,23.01
2022-09-25T05:48:49.906Z,23.04
2022-09-25T05:51:19.950Z,23.11
2022-09-25T05:53:52.527Z,23.14
2022-09-25T05:56:25.657Z,23.21
2022-09-25T05:59:00.005Z,23.25
2022-09-25T06:01:30.549Z,23.26
2022-09-25T06:04:00.726Z,23.30
2022-09-25T06:06:33.305Z,23.35
2022-09-25T06:09:03.208Z,23.38
2022-09-25T06:11:33.574Z,23.39
2022-09-25T06:14:05.183Z,23.43
2022-09-25T06:16:36.751Z,23.46
2022-09-25T06:19:07.350Z,23.52
2022-09-25T06:21:40.983Z,23.55
2022-09-25T06:24:15.026Z,23.57
2022-09-25T06:26:46.085Z,23.57
2022-09-25T06:29:16.648Z,23.63
2022-09-25T06:31:47.702Z,23.68
2022-09-25T06:34:18.502Z,23.71
2022-09-25T06:36:49.590Z,23.75
2022-09-25T06:39:19.970Z,23.81
2022-09-25T06:41:51.149Z,23.83
2022-09-25T06:44:24.443Z,23.89
2022-09-25T06:46:55.946Z,23.94
2022-09-25T06:49:27.210Z,23.98
2022-09-25T06:51:58.252Z,24.03
2022-09-25T06:54:33.347Z,24.08
2022-09-25T06:57:04.294Z,24.12
2022-09-25T06:59:34.997Z,24.16
2022-09-25T07:02:23.354Z,24.20
2022-09-25T07:04:54.303Z,24.25
2022-09-25T07:07:25.736Z,24.28
2022-09-25T07:09:56.582Z,24.32
2022-09-25T07:12:26.964Z,24.35
2022-09-25T07:14:57.988Z,24.41
2022-09-25T07:17:28.461Z,24.44
2022-09-25T07:19:59.363Z,24.48
2022-09-25T07:22:30.941Z,24.50
2022-09-25T07:25:01.714Z,24.55
2022-09-25T07:27:32.754Z,24.56
2022-09-25T07:30:06.253Z,24.61
2022-09-25T07:32:37.157Z,24.63
2022-09-25T07:35:07.738Z,24.66
2022-09-25T07:37:37.941Z,24.71
2022-09-25T07:40:08.852Z,24.73
2022-09-25T07:42:39.601Z,24.75
2022-09-25T07:45:11.000Z,24.75
2022-09-25T07:47:41.198Z,24.79
2022-09-25T07:50:15.366Z,24.81
2022-09-25T07:52:46.047Z,24.81
2022-09-25T07:55:16.351Z,24.82
2022-09-25T07:57:46.729Z,24.81
2022-09-25T08:00:17.133Z,24.81
2022-09-25T08:02:47.209Z,24.82
2022-09-25T08:05:17.446Z,24.82
2022-09-25T08:07:47.631Z,24.80
2022-09-25T08:10:20.432Z,24.81
2022-09-25T08:12:51.264Z,24.82
2022-09-25T08:15:22.155Z,24.78
2022-09-25T08:17:53.122Z,24.78
2022-09-25T08:20:23.444Z,24.78
2022-09-25T08:22:56.664Z,24.81
2022-09-25T08:25:26.718Z,24.81
2022-09-25T08:27:56.875Z,24.79
2022-09-25T08:30:27.123Z,24.75
2022-09-25T08:32:57.493Z,24.76
2022-09-25T08:35:29.275Z,24.72
2022-09-25T08:38:00.415Z,24.73
2022-09-25T08:40:33.844Z,24.71
2022-09-25T08:43:05.014Z,24.70
2022-09-25T08:46:11.061Z,24.66
2022-09-25T08:49:08.503Z,24.63
2022-09-25T08:51:51.935Z,24.58
2022-09-25T08:54:30.868Z,24.52
2022-09-25T08:57:21.122Z,24.49
2022-09-25T09:00:01.466Z,24.43
2022-09-25T09:02:39.845Z,24.37
2022-09-25T09:05:25.674Z,24.37
2022-09-25T09:08:21.296Z,24.35
2022-09-25T09:10:57.735Z,24.30
2022-09-25T09:13:39.765Z,24.24
2022-09-25T09:16:17.199Z,24.17
2022-09-25T09:18:47.365Z,24.09
2022-09-25T09:21:28.938Z,24.04
2022-09-25T09:24:22.647Z,23.98
2022-09-25T09:27:29.506Z,23.94
2022-09-25T09:30:06.255Z,23.87
2022-09-25T09:32:48.862Z,23.79
2022-09-25T09:35:45.533Z,23.71
2022-09-25T09:38:49.272Z,23.63
2022-09-25T09:41:43.793Z,23.56
2022-09-25T09:44:35.008Z,23.48
2022-09-25T09:47:14.246Z,23.38
2022-09-25T09:50:03.486Z,23.31
2022-09-25T09:52:43.185Z,23.23
2022-09-25T09:55:15.525Z,23.15
2022-09-25T09:58:10.096Z,23.09
2022-09-25T10:00:41.988Z,23.00
2022-09-25T10:03:19.229Z,22.93
2022-09-25T10:05:57.122Z,22.87
2022-09-25T10:08:27.858Z,22.79
2022-09-25T10:11:00.619Z,22.73
2022-09-25T10:13:40.242Z,22.68
2022-09-25T10:16:14.431Z,22.64
2022-09-25T10:19:25.454Z,22.60
2022-09-25T10:22:09.038Z,22.56
2022-09-25T10:25:06.746Z,22.50
2022-09-25T10:27:47.628Z,22.45
2022-09-25T10:30:23.653Z,22.38
2022-09-25T10:33:14.631Z,22.35
2022-09-25T10:35:47.568Z,22.28
2022-09-25T10:38:27.099Z,22.20
2022-09-25T10:41:09.980Z,22.12
2022-09-25T10:44:04.824Z,22.07
2022-09-25T10:46:56.649Z,22.02
2022-09-25T10:49:47.309Z,21.96
2022-09-25T10:52:20.747Z,21.89
2022-09-25T10:54:53.837Z,21.85
2022-09-25T10:57:39.559Z,21.82
2022-09-25T11:00:25.238Z,21.78
2022-09-25T11:03:00.999Z,21.73
2022-09-25T11:05:39.626Z,21.67
2022-09-25T11:08:10.666Z,21.61
2022-09-25T11:11:00.444Z,21.57
2022-09-25T11:13:47.877Z,21.52
2022-09-25T11:16:18.755Z,21.49
2022-09-25T11:18:52.591Z,21.45
2022-09-25T11:21:31.918Z,21.38
2022-09-25T11:24:22.974Z,21.33
2022-09-25T11:26:57.112Z,21.30
2022-09-25T11:29:40.903Z,21.28
2022-09-25T11:32:47.703Z,21.27
2022-09-25T11:35:21.218Z,21.23
2022-09-25T11:38:11.620Z,21.20
2022-09-25T11:41:17.806Z,21.17
2022-09-25T11:44:12.484Z,21.13
2022-09-25T11:47:03.186Z,21.08
2022-09-25T11:49:39.541Z,21.05
2022-09-25T11:52:39.187Z,21.03
2022-09-25T11:55:35.980Z,20.99
2022-09-25T11:58:24.236Z,20.96
2022-09-25T12:01:27.565Z,20.92
2022-09-25T12:04:09.889Z,20.88
2022-09-25T12:07:13.370Z,20.84
2022-09-25T12:09:55.764Z,20.79
2022-09-25T12:12:46.570Z,20.74
2022-09-25T12:15:34.681Z,20.70
2022-09-25T12:18:39.346Z,20.66
2022-09-25T12:21:13.036Z,20.63
2022-09-25T12:23:49.791Z,20.61
2022-09-25T12:26:28.059Z,20.59
2022-09-25T12:29:30.495Z,20.57
2022-09-25T12:32:17.932Z,20.52
2022-09-25T12:35:16.370Z,20.48
2022-09-25T12:38:04.985Z,20.42
2022-09-25T12:41:13.641Z,20.39
2022-09-25T12:43:49.767Z,20.35
2022-09-25T12:46:47.343Z,20.35
2022-09-25T12:49:35.332Z,20.34
2022-09-25T12:52:30.479Z,20.26
2022-09-25T12:55:06.528Z,20.21
2022-09-25T12:57:47.244Z,20.19
2022-09-25T13:00:27.158Z,20.19
2022-09-25T13:03:03.165Z,20.15
2022-09-25T13:05:39.167Z,20.13
2022-09-25T13:08:22.022Z,20.10
2022-09-25T13:10:59.365Z,20.08
2022-09-25T13:13:38.505Z,20.04
2022-09-25T13:16:09.335Z,20.00
2022-09-25T13:18:40.823Z,19.95
2022-09-25T13:21:38.256Z,19.91
2022-09-25T13:24:15.123Z,19.86
2022-09-25T13:26:57.969Z,19.83
2022-09-25T13:29:33.080Z,19.81
2022-09-25T13:32:26.747Z,19.79
2022-09-25T13:35:04.223Z,19.76
2022-09-25T13:37:40.912Z,19.76
2022-09-25T13:40:39.159Z,19.71
2022-09-25T13:43:27.096Z,19.67
2022-09-25T13:46:30.563Z,19.65
2022-09-25T13:49:36.723Z,19.63
2022-09-25T13:52:38.837Z,19.62
2022-09-25T13:55:20.934Z,19.61
2022-09-25T13:58:01.393Z,19.58
2022-09-25T14:01:00.459Z,19.55
2022-09-25T14:03:41.154Z,19.51
2022-09-25T14:06:24.410Z,19.50
2022-09-25T14:09:00.364Z,19.48
2022-09-25T14:11:35.830Z,19.45
2022-09-25T14:14:39.881Z,19.44
2022-09-25T14:17:18.201Z,19.42
2022-09-25T14:19:53.739Z,19.39
2022-09-25T14:22:41.938Z,19.39
2022-09-25T14:25:34.342Z,19.37
2022-09-25T14:28:18.197Z,19.34
2022-09-25T14:31:16.218Z,19.33
2022-09-25T14:34:11.144Z,19.30
2022-09-25T14:37:02.095Z,19.28
2022-09-25T14:39:57.630Z,19.27
2022-09-25T14:42:30.666Z,19.25
2022-09-25T14:45:10.230Z,19.21
2022-09-25T14:47:48.938Z,19.18
2022-09-25T14:50:29.678Z,19.19
2022-09-25T14:53:06.322Z,19.16
2022-09-25T14:55:41.681Z,19.14
2022-09-25T14:58:18.450Z,19.13
2022-09-25T15:00:52.936Z,19.09
2022-09-25T15:03:33.017Z,19.05
2022-09-25T15:06:04.074Z,19.03
2022-09-25T15:08:34.798Z,19.04
2022-09-25T15:11:14.507Z,19.03
2022-09-25T15:13:47.470Z,19.00
2022-09-25T15:16:43.114Z,19.04
2022-09-25T15:19:24.352Z,19.02
2022-09-25T15:21:56.205Z,18.99
2022-09-25T15:24:33.680Z,18.96
2022-09-25T15:27:08.158Z,18.92
2022-09-25T15:29:43.795Z,18.91
2022-09-25T15:32:31.447Z,18.88
2022-09-25T15:35:16.485Z,18.85
2022-09-25T15:37:48.590Z,18.83
2022-09-25T15:40:32.161Z,18.80
2022-09-25T15:43:04.387Z,18.77
2022-09-25T15:46:12.563Z,18.74
2022-09-25T15:48:55.551Z,18.70
2022-09-25T15:51:34.914Z,18.67
2022-09-25T15:54:33.809Z,18.62
2022-09-25T15:57:08.494Z,18.61
2022-09-25T16:00:03.025Z,18.58
2022-09-25T16:02:56.175Z,18.52
2022-09-25T16:05:38.038Z,18.51
2022-09-25T16:08:17.702Z,18.50
2022-09-25T16:10:50.300Z,18.47
2022-09-25T16:13:27.329Z,18.44
2022-09-25T16:15:58.185Z,18.43
2022-09-25T16:18:41.232Z,18.43
2022-09-25T16:21:16.772Z,18.40
2022-09-25T16:23:57.512Z,18.36
2022-09-25T16:26:29.080Z,18.33
2022-09-25T16:29:09.886Z,18.31
2022-09-25T16:31:45.318Z,18.28
2022-09-25T16:34:39.873Z,18.26
2022-09-25T16:37:22.993Z,18.23
2022-09-25T16:40:20.513Z,18.23
2022-09-25T16:42:52.262Z,18.14
2022-09-25T16:45:26.488Z,18.11
2022-09-25T16:47:59.870Z,18.04
2022-09-25T16:50:35.282Z,17.95
2022-09-25T16:53:07.750Z,17.88
2022-09-25T16:55:54.761Z,17.80
2022-09-25T16:58:24.951Z,17.75
2022-09-25T17:00:55.067Z,17.66
2022-09-25T17:03:24.722Z,17.63
2022-09-25T17:05:54.766Z,17.56
2022-09-25T17:08:26.398Z,17.53
2022-09-25T17:10:57.714Z,17.46
2022-09-25T17:13:34.657Z,17.43
2022-09-25T17:16:05.057Z,17.41
2022-09-25T17:18:36.690Z,17.36
2022-09-25T17:21:14.120Z,17.34
2022-09-25T17:23:45.958Z,17.27
2022-09-25T17:26:24.556Z,17.22
2022-09-25T17:28:54.773Z,17.19
2022-09-25T17:31:25.093Z,17.15
2022-09-25T17:33:54.716Z,17.15
2022-09-25T17:36:25.225Z,17.10
2022-09-25T17:38:55.347Z,17.10
2022-09-25T17:41:38.107Z,17.10
2022-09-25T17:44:12.149Z,17.07
2022-09-25T17:46:42.699Z,17.07
2022-09-25T17:49:12.883Z,17.08
2022-09-25T17:51:43.755Z,17.10
2022-09-25T17:54:14.734Z,17.10
2022-09-25T17:56:46.608Z,17.07
2022-09-25T17:59:17.172Z,17.09
2022-09-25T18:01:47.055Z,17.08
2022-09-25T18:04:27.902Z,17.03
2022-09-25T18:06:58.188Z,16.98
2022-09-25T18:09:28.378Z,16.94
2022-09-25T18:11:58.855Z,16.91
2022-09-25T18:14:29.061Z,16.89
2022-09-25T18:16:59.507Z,16.85
2022-09-25T18:19:47.448Z,16.81
2022-09-25T18:22:22.811Z,16.77
2022-09-25T18:24:57.731Z,16.74
2022-09-25T18:27:32.424Z,16.71
2022-09-25T18:30:03.098Z,16.71
2022-09-25T18:32:34.271Z,16.71
2022-09-25T18:35:04.733Z,16.69
2022-09-25T18:37:35.146Z,16.64
2022-09-25T18:40:06.351Z,16.62
2022-09-25T18:42:36.791Z,16.59
2022-09-25T18:45:08.752Z,16.58
2022-09-25T18:47:39.301Z,16.54
2022-09-25T18:50:12.881Z,16.52
2022-09-25T18:52:47.631Z,16.47
2022-09-25T18:55:18.855Z,16.47
2022-09-25T18:57:49.326Z,16.44
2022-09-25T19:00:20.117Z,16.41
2022-09-25T19:02:50.520Z,16.37
2022-09-25T19:05:21.493Z,16.36
2022-09-25T19:07:53.175Z,16.34
2022-09-25T19:10:25.501Z,16.31
2022-09-25T19:12:55.959Z,16.27
2022-09-25T19:15:26.510Z,16.27
2022-09-25T19:18:00.017Z,16.27
2022-09-25T19:20:30.712Z,16.27
2022-09-25T19:23:02.342Z,16.24
2022-09-25T19:25:32.768Z,16.24
2022-09-25T19:28:03.245Z,16.23
2022-09-25T19:30:33.809Z,16.22
2022-09-25T19:33:06.167Z,16.19
2022-09-25T19:35:36.860Z,16.16
2022-09-25T19:38:11.817Z,16.12
2022-09-25T19:40:43.612Z,16.13
2022-09-25T19:43:14.115Z,16.13
2022-09-25T19:45:52.213Z,16.11
2022-09-25T19:48:26.356Z,16.07
2022-09-25T19:50:56.864Z,16.06
2022-09-25T19:53:26.960Z,16.04
2022-09-25T19:55:59.541Z,16.06
2022-09-25T19:58:31.160Z,16.05
2022-09-25T20:01:02.103Z,16.04
2022-09-25T20:03:33.010Z,16.03
2022-09-25T20:06:04.822Z,16.02
2022-09-25T20:08:36.024Z,15.99
2022-09-25T20:11:19.814Z,15.96
2022-09-25T20:13:53.049Z,15.94
2022-09-25T20:16:26.620Z,15.91
2022-09-25T20:19:06.890Z,15.87
2022-09-25T20:21:43.198Z,15.82
2022-09-25T20:24:14.271Z,15.77
2022-09-25T20:26:44.128Z,15.72
2022-09-25T20:29:16.625Z,15.70
2022-09-25T20:31:47.964Z,15.65
2022-09-25T20:34:21.322Z,15.64
2022-09-25T20:36:52.134Z,15.60
2022-09-25T20:39:24.362Z,15.55
2022-09-25T20:41:54.449Z,15.52
2022-09-25T20:44:24.857Z,15.49
2022-09-25T20:46:54.925Z,15.44
2022-09-25T20:49:25.130Z,15.43
2022-09-25T20:51:55.401Z,15.43
2022-09-25T20:54:30.725Z,15.41
2022-09-25T20:57:00.840Z,15.40
2022-09-25T20:59:30.271Z,15.38
2022-09-25T21:02:00.348Z,15.31
2022-09-25T21:04:31.169Z,15.28
2022-09-25T21:07:01.403Z,15.29
2022-09-25T21:09:32.464Z,15.31
2022-09-25T21:12:06.820Z,15.30
2022-09-25T21:14:37.146Z,15.26
2022-09-25T21:17:07.514Z,15.23
2022-09-25T21:19:37.958Z,15.24
2022-09-25T21:22:08.766Z,15.18
2022-09-25T21:24:39.091Z,15.15
2022-09-25T21:27:09.730Z,15.15
2022-09-25T21:29:39.958Z,15.13
2022-09-25T21:32:10.675Z,15.12
2022-09-25T21:34:40.737Z,15.11
2022-09-25T21:37:10.787Z,15.07
2022-09-25T21:39:41.102Z,15.05
2022-09-25T21:42:11.420Z,15.02
2022-09-25T21:44:41.385Z,15.01
2022-09-25T21:47:11.549Z,14.99
2022-09-25T21:49:41.690Z,14.99
2022-09-25T21:52:12.065Z,15.03
2022-09-25T21:54:44.260Z,15.01
2022-09-25T21:57:14.542Z,14.95
2022-09-25T21:59:44.610Z,14.97
2022-09-25T22:02:14.706Z,14.95
2022-09-25T22:04:45.550Z,14.94
2022-09-25T22:07:15.918Z,14.94
2022-09-25T22:09:46.639Z,14.94
2022-09-25T22:12:16.834Z,14.93
2022-09-25T22:14:46.839Z,14.94
2022-09-25T22:17:17.075Z,14.94
2022-09-25T22:19:47.567Z,14.94
2022-09-25T22:22:17.528Z,14.93
2022-09-25T22:24:47.463Z,14.92
2022-09-25T22:27:17.701Z,14.91
2022-09-25T22:29:47.785Z,14.90
2022-09-25T22:32:17.882Z,14.85
2022-09-25T22:34:48.126Z,14.87
2022-09-25T22:37:19.688Z,14.86
2022-09-25T22:39:49.701Z,14.86
2022-09-25T22:42:19.774Z,14.87
2022-09-25T22:44:49.850Z,14.87
2022-09-25T22:47:19.890Z,14.87
2022-09-25T22:49:50.104Z,14.88
2022-09-25T22:52:20.772Z,14.89
2022-09-25T22:54:50.981Z,14.92
2022-09-25T22:57:21.602Z,14.95
2022-09-25T22:59:51.879Z,14.99
2022-09-25T23:02:22.333Z,15.03
2022-09-25T23:04:55.184Z,15.08
2022-09-25T23:07:25.644Z,15.14
2022-09-25T23:09:55.864Z,15.21
2022-09-25T23:12:30.411Z,15.26
2022-09-25T23:15:01.313Z,15.33
2022-09-25T23:17:31.733Z,15.40
2022-09-25T23:20:02.027Z,15.45
2022-09-25T23:22:33.094Z,15.49
2022-09-25T23:25:03.379Z,15.55
2022-09-25T23:27:35.252Z,15.61
2022-09-25T23:30:06.145Z,15.70
2022-09-25T23:32:37.902Z,15.77
2022-09-25T23:35:09.010Z,15.84
2022-09-25T23:37:42.715Z,15.93
2022-09-25T23:40:15.736Z,16.00
2022-09-25T23:42:46.468Z,16.05
2022-09-25T23:45:17.031Z,16.12
2022-09-25T23:47:47.552Z,16.16
2022-09-25T23:50:17.064Z,16.22
2022-09-25T23:52:47.326Z,16.27
2022-09-25T23:55:17.711Z,16.33
2022-09-25T23:57:47.868Z,16.41
